Time;durP1;ratioP1;P1;durP2;ratioP2;P2;SDS_P1;SDS_P2;PMS_P1;PMS_P2;Temp;Humidity;BMP_temperature;BMP_pressure;BME280_temperature;BME280_humidity;BME280_pressure;Samples;Min_cycle;Max_cycle;Signal;HPM_P1;HPM_P2
2023/09/03 00:01:05;;;;;;;9.63;5.60;;;19.10;81.90;;;;;;5050226;28;20817;-68
2023/09/03 00:03:31;;;;;;;6.80;4.40;;;19.00;81.90;;;;;;5048354;28;20227;-68
2023/09/03 00:05:57;;;;;;;7.23;4.60;;;18.90;82.40;;;;;;5044878;28;20418;-67
2023/09/03 00:08:23;;;;;;;8.40;5.20;;;18.80;82.50;;;;;;5049298;28;20178;-66
2023/09/03 00:10:50;;;;;;;10.57;5.37;;;18.80;82.80;;;;;;5049017;28;20238;-67
2023/09/03 00:13:15;;;;;;;8.57;4.70;;;18.70;82.80;;;;;;5052174;28;20434;-68
2023/09/03 00:15:41;;;;;;;8.47;5.50;;;18.70;83.10;;;;;;5051522;28;20435;-68
2023/09/03 00:18:08;;;;;;;8.23;4.60;;;18.70;83.00;;;;;;5051900;28;20199;-68
2023/09/03 00:20:33;;;;;;;7.40;5.00;;;18.80;82.80;;;;;;5049760;28;20211;-67
2023/09/03 00:23:00;;;;;;;8.77;4.57;;;18.70;82.70;;;;;;5047556;28;20512;-68
2023/09/03 00:25:26;;;;;;;9.00;5.13;;;18.70;82.70;;;;;;5050807;28;20184;-67
2023/09/03 00:27:51;;;;;;;9.13;5.90;;;18.60;82.70;;;;;;5050567;28;20446;-67
2023/09/03 00:30:17;;;;;;;8.13;5.30;;;18.60;83.00;;;;;;5048920;28;20182;-67
2023/09/03 00:32:42;;;;;;;6.87;4.80;;;18.60;83.30;;;;;;5046612;28;20184;-68
2023/09/03 00:35:08;;;;;;;6.30;4.30;;;18.50;83.10;;;;;;5050831;28;20180;-67
2023/09/03 00:37:34;;;;;;;7.67;5.30;;;18.50;83.30;;;;;;5051215;28;20292;-68
2023/09/03 00:39:59;;;;;;;8.03;5.00;;;18.40;83.40;;;;;;5050739;28;20294;-68
2023/09/03 00:42:27;;;;;;;8.00;4.47;;;18.30;83.70;;;;;;5048948;28;20214;-67
2023/09/03 00:44:52;;;;;;;8.57;5.30;;;18.30;84.00;;;;;;5050663;28;20245;-68
2023/09/03 00:47:19;;;;;;;9.83;4.83;;;18.20;84.00;;;;;;5051303;28;20416;-68
2023/09/03 00:49:45;;;;;;;9.70;4.57;;;18.20;84.30;;;;;;5049748;28;20282;-67
2023/09/03 00:52:12;;;;;;;8.87;4.93;;;18.30;84.30;;;;;;5046788;28;20496;-68
2023/09/03 00:54:38;;;;;;;7.57;4.77;;;18.30;84.30;;;;;;5049749;28;20451;-67
2023/09/03 00:57:04;;;;;;;9.00;4.57;;;18.30;84.30;;;;;;5051506;28;20452;-67
2023/09/03 00:59:31;;;;;;;7.67;4.57;;;18.40;84.30;;;;;;5051002;28;20418;-66
2023/09/03 01:01:58;;;;;;;8.27;5.10;;;18.40;84.00;;;;;;5048546;28;21082;-66
2023/09/03 01:04:24;;;;;;;6.97;4.50;;;18.40;83.70;;;;;;5050801;28;20433;-67
2023/09/03 01:06:51;;;;;;;8.60;5.20;;;18.40;83.80;;;;;;5052024;28;20520;-68
2023/09/03 01:09:18;;;;;;;6.60;4.83;;;18.50;83.70;;;;;;5052936;28;20666;-67
2023/09/03 01:12:06;;;;;;;6.47;4.73;;;18.50;83.70;;;;;;5048254;28;20537;-68
2023/09/03 01:14:36;;;;;;;8.87;4.80;;;18.50;83.70;;;;;;5050996;28;20474;-67
2023/09/03 01:17:15;;;;;;;6.10;4.00;;;18.50;83.30;;;;;;5051922;28;20410;-67
2023/09/03 01:19:59;;;;;;;7.90;5.20;;;18.50;83.10;;;;;;5047612;28;20452;-67
2023/09/03 01:23:09;;;;;;;7.20;4.27;;;18.50;83.00;;;;;;5048671;28;20467;-67
2023/09/03 01:25:41;;;;;;;6.37;4.30;;;18.40;83.00;;;;;;5047238;28;20426;-66
2023/09/03 01:28:26;;;;;;;11.70;5.07;;;18.30;83.10;;;;;;5051820;28;20418;-66
2023/09/03 01:31:03;;;;;;;8.90;5.40;;;18.20;83.60;;;;;;5051870;28;20488;-67
2023/09/03 01:33:31;;;;;;;9.50;4.90;;;18.10;84.10;;;;;;5055729;28;20426;-69
2023/09/03 01:35:59;;;;;;;8.83;5.00;;;18.10;84.60;;;;;;5052653;28;20945;-68
2023/09/03 01:38:25;;;;;;;7.90;4.67;;;18.00;84.70;;;;;;5054856;28;20485;-68
2023/09/03 01:40:53;;;;;;;7.90;4.80;;;18.10;85.20;;;;;;5049754;28;20964;-69
2023/09/03 01:43:19;;;;;;;6.23;4.23;;;18.20;85.00;;;;;;5053216;28;20482;-68
2023/09/03 01:45:56;;;;;;;7.83;4.70;;;18.30;84.40;;;;;;5051292;28;20486;-68
2023/09/03 01:48:33;;;;;;;8.43;4.70;;;18.30;83.70;;;;;;5051732;28;20178;-69
2023/09/03 01:51:25;;;;;;;8.87;4.90;;;18.30;83.70;;;;;;5050057;28;20476;-68
2023/09/03 01:54:02;;;;;;;8.07;5.27;;;18.30;84.00;;;;;;5051560;28;20428;-67
2023/09/03 01:56:31;;;;;;;7.00;4.47;;;18.10;84.10;;;;;;5049363;28;20427;-67
2023/09/03 01:59:01;;;;;;;8.23;4.80;;;18.20;84.60;;;;;;5049880;28;20463;-68
2023/09/03 02:01:30;;;;;;;7.67;4.40;;;18.20;84.90;;;;;;5047270;28;20466;-67
2023/09/03 02:03:56;;;;;;;11.17;5.60;;;18.20;84.90;;;;;;5042317;28;21300;-65
2023/09/03 02:06:22;;;;;;;7.27;5.10;;;18.20;84.70;;;;;;5052621;28;20454;-67
2023/09/03 02:08:48;;;;;;;10.03;5.23;;;18.10;85.00;;;;;;5056578;28;20423;-67
2023/09/03 02:11:13;;;;;;;7.10;4.30;;;18.20;85.30;;;;;;5047962;28;20207;-69
2023/09/03 02:13:40;;;;;;;9.67;5.63;;;18.20;85.30;;;;;;5038934;28;20183;-67
2023/09/03 02:16:05;;;;;;;8.23;5.03;;;18.10;85.30;;;;;;5043551;28;20187;-66
2023/09/03 02:18:31;;;;;;;7.63;5.27;;;18.00;85.50;;;;;;5048869;28;20440;-68
2023/09/03 02:20:57;;;;;;;9.30;5.73;;;18.10;85.70;;;;;;5043099;28;20212;-67
2023/09/03 02:23:23;;;;;;;8.83;5.27;;;18.10;86.00;;;;;;5043609;28;20575;-67
2023/09/03 02:26:01;;;;;;;9.47;5.90;;;18.20;85.70;;;;;;5046156;28;20391;-67
2023/09/03 02:28:27;;;;;;;7.63;5.40;;;18.20;85.60;;;;;;5049404;28;20674;-68
2023/09/03 02:30:53;;;;;;;9.00;5.43;;;18.20;85.50;;;;;;5048268;28;20535;-67
2023/09/03 02:33:19;;;;;;;8.10;4.90;;;18.10;85.50;;;;;;5051678;28;20191;-67
2023/09/03 02:35:44;;;;;;;8.43;4.93;;;18.10;85.50;;;;;;5056620;28;20194;-67
2023/09/03 02:38:10;;;;;;;7.33;4.67;;;18.20;85.50;;;;;;5058644;28;20187;-69
2023/09/03 02:40:39;;;;;;;6.97;4.73;;;18.20;85.30;;;;;;5054789;28;20225;-68
2023/09/03 02:43:05;;;;;;;7.37;5.07;;;18.20;85.20;;;;;;5052275;28;20303;-67
2023/09/03 02:45:31;;;;;;;7.83;4.70;;;18.20;85.30;;;;;;5053485;28;20467;-68
2023/09/03 02:47:56;;;;;;;6.57;4.77;;;18.20;85.20;;;;;;5052479;28;20261;-68
2023/09/03 02:50:22;;;;;;;9.13;5.60;;;18.20;85.20;;;;;;5052170;28;20216;-68
2023/09/03 02:52:48;;;;;;;8.10;5.43;;;18.10;85.20;;;;;;5056935;28;20544;-68
2023/09/03 02:55:14;;;;;;;7.70;4.40;;;18.10;85.20;;;;;;5056302;28;20198;-67
2023/09/03 02:57:40;;;;;;;8.67;4.30;;;18.10;84.70;;;;;;5058864;28;20811;-67
2023/09/03 03:00:06;;;;;;;6.23;4.40;;;18.10;84.30;;;;;;5057383;28;20182;-64
2023/09/03 03:02:32;;;;;;;6.67;4.37;;;18.00;84.00;;;;;;5059094;28;20213;-67
2023/09/03 03:04:58;;;;;;;8.00;3.93;;;18.00;84.00;;;;;;5060252;28;20409;-68
2023/09/03 03:07:25;;;;;;;6.47;4.27;;;17.80;84.00;;;;;;5058122;28;20423;-66
2023/09/03 03:09:51;;;;;;;8.10;5.20;;;17.70;84.40;;;;;;5052252;28;20264;-67
2023/09/03 03:12:16;;;;;;;6.73;4.80;;;17.60;85.00;;;;;;5054582;28;20528;-66
2023/09/03 03:14:42;;;;;;;7.33;4.37;;;17.60;85.30;;;;;;5057049;28;20188;-68
2023/09/03 03:17:08;;;;;;;8.90;5.30;;;17.50;85.60;;;;;;5056607;28;20194;-68
2023/09/03 03:19:33;;;;;;;7.23;4.80;;;17.50;85.70;;;;;;5059904;28;20207;-69
2023/09/03 03:21:59;;;;;;;9.27;5.03;;;17.60;86.00;;;;;;5055680;28;20213;-68
2023/09/03 03:24:24;;;;;;;8.10;5.07;;;17.60;86.30;;;;;;5055228;28;20197;-67
2023/09/03 03:26:50;;;;;;;7.37;5.20;;;17.50;86.50;;;;;;5051199;28;20209;-67
2023/09/03 03:29:16;;;;;;;6.87;4.40;;;17.50;86.90;;;;;;5056081;28;20192;-66
2023/09/03 03:31:45;;;;;;;8.03;4.67;;;17.50;87.10;;;;;;5053417;28;20265;-66
2023/09/03 03:34:11;;;;;;;7.10;4.40;;;17.60;87.10;;;;;;5053849;28;20179;-68
2023/09/03 03:36:36;;;;;;;11.23;4.90;;;17.60;86.80;;;;;;5055345;28;20442;-67
2023/09/03 03:39:02;;;;;;;11.37;4.60;;;17.60;86.30;;;;;;5055911;28;20210;-67
2023/09/03 03:41:27;;;;;;;6.40;4.43;;;17.60;85.70;;;;;;5048482;28;20657;-67
2023/09/03 03:43:53;;;;;;;8.53;4.83;;;17.60;85.00;;;;;;5052879;28;20318;-67
2023/09/03 03:46:20;;;;;;;11.30;5.10;;;17.50;85.00;;;;;;5053945;28;20195;-66
2023/09/03 03:48:47;;;;;;;7.47;4.40;;;17.50;85.00;;;;;;5054316;28;20178;-67
2023/09/03 03:51:13;;;;;;;9.90;5.33;;;17.40;85.60;;;;;;5052427;28;20480;-68
2023/09/03 03:53:39;;;;;;;9.37;5.83;;;17.40;85.90;;;;;;5050331;28;20430;-67
2023/09/03 03:56:06;;;;;;;9.90;6.10;;;17.40;86.20;;;;;;5053141;28;20179;-66
2023/09/03 03:58:37;;;;;;;8.67;4.70;;;17.40;86.80;;;;;;5052654;28;20880;-68
2023/09/03 04:01:15;;;;;;;7.83;4.93;;;17.40;86.90;;;;;;5048376;28;20780;-66
2023/09/03 04:03:42;;;;;;;11.50;5.13;;;17.40;86.90;;;;;;5051465;28;20573;-66
2023/09/03 04:06:08;;;;;;;8.10;5.33;;;17.40;87.10;;;;;;5052293;28;20431;-67
2023/09/03 04:08:35;;;;;;;7.87;5.60;;;17.50;87.30;;;;;;5052943;28;20427;-67
2023/09/03 04:11:03;;;;;;;7.13;5.30;;;17.50;87.10;;;;;;5051674;28;20217;-67
2023/09/03 04:13:29;;;;;;;7.20;4.97;;;17.50;87.10;;;;;;5053731;28;20440;-68
2023/09/03 04:15:56;;;;;;;9.03;5.83;;;17.50;87.00;;;;;;5052817;28;20425;-68
2023/09/03 04:18:23;;;;;;;7.20;4.83;;;17.50;87.00;;;;;;5054838;28;20443;-66
2023/09/03 04:20:52;;;;;;;10.13;5.40;;;17.50;87.00;;;;;;5054889;28;20458;-67
2023/09/03 04:23:18;;;;;;;9.37;4.53;;;17.60;87.00;;;;;;5049946;28;20460;-67
2023/09/03 04:25:44;;;;;;;10.30;4.70;;;17.60;86.30;;;;;;5052653;28;20439;-67
2023/09/03 04:28:09;;;;;;;9.33;4.87;;;17.60;85.00;;;;;;5053575;28;20442;-66
2023/09/03 04:30:36;;;;;;;7.03;4.70;;;17.50;84.70;;;;;;5049100;28;20217;-67
2023/09/03 04:33:02;;;;;;;14.67;5.47;;;17.40;84.70;;;;;;5052760;28;20192;-67
2023/09/03 04:35:28;;;;;;;10.40;4.70;;;17.40;85.00;;;;;;5053817;28;20411;-66
2023/09/03 04:37:54;;;;;;;6.10;4.80;;;17.20;85.50;;;;;;5054157;28;20415;-68
2023/09/03 04:40:19;;;;;;;7.67;5.20;;;17.20;85.90;;;;;;5052310;28;20282;-67
2023/09/03 04:42:45;;;;;;;8.40;5.27;;;17.20;86.50;;;;;;5053881;28;20286;-68
2023/09/03 04:45:11;;;;;;;8.80;5.17;;;17.30;86.80;;;;;;5058353;28;20374;-67
2023/09/03 04:47:36;;;;;;;9.70;5.00;;;17.30;86.80;;;;;;5052132;28;20185;-66
2023/09/03 04:50:02;;;;;;;7.23;5.30;;;17.40;86.80;;;;;;5050872;28;20181;-66
2023/09/03 04:52:28;;;;;;;7.73;5.23;;;17.40;86.50;;;;;;5048433;28;20230;-67
2023/09/03 04:54:53;;;;;;;8.77;4.83;;;17.40;85.70;;;;;;5045004;28;20189;-66
2023/09/03 04:57:20;;;;;;;11.67;5.07;;;17.40;85.60;;;;;;5051126;28;20192;-66
2023/09/03 04:59:45;;;;;;;7.90;5.43;;;17.30;85.70;;;;;;5048790;28;20197;-66
2023/09/03 05:02:11;;;;;;;7.97;4.70;;;17.30;86.00;;;;;;5049033;28;20463;-68
2023/09/03 05:04:36;;;;;;;7.70;5.07;;;17.20;85.90;;;;;;5046579;28;20189;-66
2023/09/03 05:07:06;;;;;;;9.30;5.13;;;17.20;86.20;;;;;;5052441;28;20180;-67
2023/09/03 05:09:31;;;;;;;9.30;4.90;;;17.20;86.20;;;;;;5052066;28;20598;-67
2023/09/03 05:11:57;;;;;;;9.60;5.37;;;17.20;85.90;;;;;;5047528;28;20476;-67
2023/09/03 05:14:23;;;;;;;9.50;5.10;;;17.20;85.70;;;;;;5050677;28;20180;-67
2023/09/03 05:16:48;;;;;;;5.37;4.10;;;17.10;85.60;;;;;;5052460;28;20242;-66
2023/09/03 05:19:16;;;;;;;8.80;4.70;;;17.20;85.60;;;;;;5052107;28;20199;-67
2023/09/03 05:21:43;;;;;;;9.80;5.03;;;17.10;85.30;;;;;;5044520;28;20215;-67
2023/09/03 05:24:10;;;;;;;8.17;5.50;;;17.10;85.50;;;;;;5050722;28;20500;-68
2023/09/03 05:26:36;;;;;;;7.63;4.97;;;17.20;85.60;;;;;;5048726;28;20431;-68
2023/09/03 05:29:01;;;;;;;8.13;4.57;;;17.20;85.70;;;;;;5053368;28;20419;-68
2023/09/03 05:31:30;;;;;;;9.63;4.83;;;17.30;85.90;;;;;;5048770;28;20713;-68
2023/09/03 05:33:56;;;;;;;10.07;5.50;;;17.40;85.60;;;;;;5050604;28;20925;-68
2023/09/03 05:36:22;;;;;;;6.80;5.10;;;17.40;85.60;;;;;;5050425;28;20427;-67
2023/09/03 05:38:47;;;;;;;9.80;5.00;;;17.50;85.70;;;;;;5051379;28;20755;-68
2023/09/03 05:41:13;;;;;;;8.73;5.23;;;17.50;86.00;;;;;;5049719;28;20223;-68
2023/09/03 05:43:38;;;;;;;7.50;5.17;;;17.60;86.20;;;;;;5052100;28;20208;-67
2023/09/03 05:46:04;;;;;;;9.73;5.50;;;17.60;86.00;;;;;;5054484;28;20181;-67
2023/09/03 05:48:30;;;;;;;8.83;5.47;;;17.70;85.90;;;;;;5057193;28;20196;-65
2023/09/03 05:50:57;;;;;;;8.50;5.60;;;17.80;85.60;;;;;;5050511;28;20479;-69
2023/09/03 05:53:24;;;;;;;6.80;4.80;;;17.80;85.20;;;;;;5052707;28;20183;-67
2023/09/03 05:55:49;;;;;;;6.50;4.93;;;18.00;85.20;;;;;;5049742;28;20507;-66
2023/09/03 05:58:16;;;;;;;10.73;5.27;;;18.10;83.80;;;;;;5051449;28;20499;-67
2023/09/03 06:00:42;;;;;;;9.47;5.53;;;17.90;83.60;;;;;;5047434;28;20228;-69
2023/09/03 06:03:08;;;;;;;7.37;5.13;;;17.90;84.10;;;;;;5051231;28;20882;-69
2023/09/03 06:05:33;;;;;;;8.30;5.80;;;18.00;84.30;;;;;;5045600;28;20189;-67
2023/09/03 06:08:00;;;;;;;9.47;5.27;;;18.10;84.10;;;;;;5051983;28;20464;-67
2023/09/03 06:10:26;;;;;;;10.77;6.00;;;18.20;83.60;;;;;;5044994;28;20296;-68
2023/09/03 06:12:52;;;;;;;9.30;5.27;;;18.30;83.10;;;;;;5051814;28;20834;-68
2023/09/03 06:15:17;;;;;;;8.43;5.90;;;18.40;82.80;;;;;;5053664;28;20207;-66
2023/09/03 06:17:48;;;;;;;8.30;5.27;;;18.30;82.50;;;;;;5051926;28;20440;-66
2023/09/03 06:20:14;;;;;;;8.30;4.93;;;18.40;83.00;;;;;;5050737;28;20182;-66
2023/09/03 06:22:39;;;;;;;8.43;5.50;;;18.60;82.40;;;;;;5053365;28;20490;-66
2023/09/03 06:25:06;;;;;;;7.47;4.90;;;18.60;82.40;;;;;;5055686;28;20178;-68
2023/09/03 06:27:32;;;;;;;9.10;6.03;;;18.60;82.40;;;;;;5052287;28;20187;-68
2023/09/03 06:29:58;;;;;;;8.70;4.90;;;18.60;81.90;;;;;;5050475;28;20450;-67
2023/09/03 06:32:24;;;;;;;10.87;4.93;;;18.50;82.20;;;;;;5050333;28;21032;-68
2023/09/03 06:34:50;;;;;;;12.83;5.30;;;18.70;82.20;;;;;;5051083;28;20268;-68
2023/09/03 06:37:15;;;;;;;10.83;5.73;;;18.90;81.80;;;;;;5050325;28;20429;-68
2023/09/03 06:39:41;;;;;;;10.20;5.30;;;19.00;81.70;;;;;;5048599;28;20192;-70
2023/09/03 06:42:07;;;;;;;10.30;5.90;;;18.90;81.50;;;;;;5047002;28;20224;-69
2023/09/03 06:44:33;;;;;;;9.73;6.37;;;18.80;81.70;;;;;;5049318;28;20430;-67
2023/09/03 06:46:58;;;;;;;9.53;6.20;;;19.00;81.50;;;;;;5049423;28;20187;-67
2023/09/03 06:49:24;;;;;;;10.50;5.77;;;18.80;81.50;;;;;;5049682;28;20179;-69
2023/09/03 06:51:51;;;;;;;7.17;5.10;;;18.90;81.90;;;;;;5046721;28;20211;-66
2023/09/03 06:54:16;;;;;;;10.87;6.10;;;19.20;81.50;;;;;;5049078;28;20181;-67
2023/09/03 06:56:42;;;;;;;8.73;6.40;;;19.40;81.10;;;;;;5049161;28;20427;-67
2023/09/03 06:59:07;;;;;;;9.30;5.60;;;19.40;80.60;;;;;;5043719;28;20196;-67
2023/09/03 07:01:33;;;;;;;8.77;5.50;;;19.40;80.60;;;;;;5047348;28;20580;-70
2023/09/03 07:03:58;;;;;;;12.90;7.10;;;19.40;80.60;;;;;;5049356;28;20223;-68
2023/09/03 07:06:24;;;;;;;10.23;7.57;;;19.50;80.30;;;;;;5047648;28;20384;-67
2023/09/03 07:08:56;;;;;;;10.97;7.70;;;19.40;80.50;;;;;;5049330;28;20192;-68
2023/09/03 07:11:21;;;;;;;12.47;7.60;;;19.20;81.20;;;;;;5049579;28;20279;-69
2023/09/03 07:13:47;;;;;;;11.03;7.20;;;19.10;81.80;;;;;;5049546;28;20428;-69
2023/09/03 07:16:12;;;;;;;11.57;7.73;;;19.00;82.10;;;;;;5048321;28;20196;-68
2023/09/03 07:18:38;;;;;;;10.73;7.43;;;19.00;82.20;;;;;;5048632;28;20209;-69
2023/09/03 07:21:05;;;;;;;12.53;7.70;;;19.00;82.40;;;;;;5046682;28;20685;-68
2023/09/03 07:23:31;;;;;;;13.10;7.90;;;19.30;82.20;;;;;;5048319;28;20956;-67
2023/09/03 07:26:04;;;;;;;13.47;7.80;;;19.20;81.90;;;;;;5048802;28;20424;-68
2023/09/03 07:28:30;;;;;;;9.30;6.20;;;19.20;81.90;;;;;;5049483;28;20189;-68
2023/09/03 07:30:56;;;;;;;14.43;8.20;;;19.30;82.10;;;;;;5046214;28;21147;-68
2023/09/03 07:33:22;;;;;;;10.97;7.00;;;19.40;81.70;;;;;;5048385;28;20431;-67
2023/09/03 07:35:47;;;;;;;11.30;7.27;;;19.30;81.50;;;;;;5048039;28;20184;-68
2023/09/03 07:38:13;;;;;;;11.30;7.20;;;19.30;81.80;;;;;;5051131;28;20177;-69
2023/09/03 07:40:39;;;;;;;14.80;8.33;;;19.50;81.80;;;;;;5050597;28;20268;-68
2023/09/03 07:43:04;;;;;;;10.90;7.10;;;19.30;81.10;;;;;;5054826;28;20238;-68
2023/09/03 07:45:30;;;;;;;9.97;7.03;;;19.20;81.80;;;;;;5054100;28;20511;-67
2023/09/03 07:47:57;;;;;;;11.97;7.73;;;19.20;81.80;;;;;;5052686;28;20238;-68
2023/09/03 07:50:23;;;;;;;11.43;6.87;;;19.10;81.90;;;;;;5045052;28;20479;-67
2023/09/03 07:52:48;;;;;;;11.77;7.93;;;19.20;82.10;;;;;;5050824;28;20941;-67
2023/09/03 07:55:15;;;;;;;11.93;7.37;;;19.20;81.80;;;;;;5051995;28;20282;-67
2023/09/03 07:57:41;;;;;;;12.93;7.80;;;19.30;81.80;;;;;;5052547;28;20663;-69
2023/09/03 08:00:07;;;;;;;13.80;7.17;;;19.50;81.50;;;;;;5050980;28;20419;-68
2023/09/03 08:02:32;;;;;;;12.27;7.40;;;19.60;81.50;;;;;;5051254;28;20216;-69
2023/09/03 08:04:58;;;;;;;9.67;5.70;;;19.90;81.10;;;;;;5051649;28;20438;-67
2023/09/03 08:07:24;;;;;;;11.30;6.00;;;20.10;80.50;;;;;;5056766;28;20603;-68
2023/09/03 08:09:50;;;;;;;10.83;6.77;;;20.40;80.00;;;;;;5051133;28;20627;-68
2023/09/03 08:12:16;;;;;;;11.53;7.13;;;20.40;79.30;;;;;;5050363;28;20530;-68
2023/09/03 08:14:43;;;;;;;11.87;6.60;;;20.60;79.00;;;;;;5051223;28;20265;-67
2023/09/03 08:17:09;;;;;;;11.13;7.70;;;20.70;78.90;;;;;;5052247;28;20208;-68
2023/09/03 08:19:35;;;;;;;13.47;7.10;;;20.80;78.00;;;;;;5052661;28;20452;-68
2023/09/03 08:22:00;;;;;;;12.73;8.40;;;20.70;78.60;;;;;;5050639;28;20239;-68
2023/09/03 08:24:29;;;;;;;8.40;6.33;;;20.40;79.70;;;;;;5051155;28;20320;-68
2023/09/03 08:26:55;;;;;;;13.20;7.63;;;20.50;80.00;;;;;;5051665;28;20668;-68
2023/09/03 08:29:20;;;;;;;14.67;6.90;;;20.70;79.30;;;;;;5052865;28;20417;-69
2023/09/03 08:31:46;;;;;;;15.70;7.30;;;20.70;79.20;;;;;;5049174;28;20591;-69
2023/09/03 08:34:11;;;;;;;13.23;7.00;;;20.90;79.00;;;;;;5051800;28;20199;-68
2023/09/03 08:36:37;;;;;;;8.93;7.00;;;21.00;78.10;;;;;;5052636;28;20186;-67
2023/09/03 08:39:06;;;;;;;10.90;6.43;;;20.80;78.30;;;;;;5053072;28;20640;-70
2023/09/03 08:41:33;;;;;;;12.90;6.60;;;21.10;78.30;;;;;;5046921;28;20210;-70
2023/09/03 08:44:04;;;;;;;11.07;7.00;;;21.30;77.70;;;;;;5053327;28;20469;-68
2023/09/03 08:46:32;;;;;;;16.07;6.30;;;21.40;77.10;;;;;;5044379;28;20421;-69
2023/09/03 08:48:59;;;;;;;10.20;6.10;;;21.50;77.00;;;;;;5050694;28;20418;-69
2023/09/03 08:51:26;;;;;;;8.13;5.20;;;21.60;76.70;;;;;;5048539;28;20873;-67
2023/09/03 08:53:54;;;;;;;7.77;5.37;;;21.80;75.90;;;;;;5049775;28;20429;-68
2023/09/03 08:56:20;;;;;;;10.33;5.47;;;22.00;75.40;;;;;;5046226;28;20419;-68
2023/09/03 08:58:45;;;;;;;6.20;4.30;;;21.90;74.80;;;;;;5051307;28;20509;-67
2023/09/03 09:01:13;;;;;;;9.00;4.93;;;21.60;74.80;;;;;;5048609;28;20545;-68
2023/09/03 09:03:41;;;;;;;9.13;5.30;;;21.60;74.90;;;;;;5050724;28;20218;-68
2023/09/03 09:06:07;;;;;;;7.60;5.80;;;21.90;74.80;;;;;;5051623;28;20433;-68
2023/09/03 09:08:34;;;;;;;8.80;5.80;;;22.00;74.20;;;;;;5051038;28;20969;-67
2023/09/03 09:11:06;;;;;;;7.73;5.27;;;21.90;74.30;;;;;;5048344;28;20501;-68
2023/09/03 09:13:37;;;;;;;8.10;5.47;;;21.80;74.80;;;;;;5051386;28;20414;-68
2023/09/03 09:16:03;;;;;;;7.47;4.57;;;21.90;74.20;;;;;;5051499;28;20418;-68
2023/09/03 09:18:29;;;;;;;7.40;5.30;;;21.90;74.00;;;;;;5053511;28;20521;-68
2023/09/03 09:20:59;;;;;;;8.80;4.53;;;22.10;73.70;;;;;;5052258;28;21057;-68
2023/09/03 09:23:27;;;;;;;8.57;5.30;;;22.10;73.50;;;;;;5053891;28;21032;-68
2023/09/03 09:25:55;;;;;;;7.70;5.27;;;22.10;73.00;;;;;;5051750;28;20438;-67
2023/09/03 09:28:21;;;;;;;7.50;5.10;;;22.10;72.70;;;;;;5053897;28;20414;-68
2023/09/03 09:30:58;;;;;;;7.33;5.00;;;22.20;72.30;;;;;;5048768;28;20470;-68
2023/09/03 09:33:24;;;;;;;9.73;5.30;;;22.30;72.10;;;;;;5050654;28;20893;-69
2023/09/03 09:35:49;;;;;;;6.57;5.03;;;22.20;72.70;;;;;;5051844;28;20576;-69
2023/09/03 09:38:16;;;;;;;5.83;4.43;;;22.10;72.70;;;;;;5053145;28;20420;-67
2023/09/03 09:40:42;;;;;;;7.13;4.37;;;22.30;72.00;;;;;;5049040;28;20205;-69
2023/09/03 09:43:08;;;;;;;5.80;4.30;;;22.50;71.30;;;;;;5053347;28;20477;-68
2023/09/03 09:45:46;;;;;;;5.33;3.80;;;22.70;70.10;;;;;;5053638;28;20185;-69
2023/09/03 09:48:12;;;;;;;7.07;4.97;;;22.90;70.40;;;;;;5051847;28;20496;-69
2023/09/03 09:50:40;;;;;;;6.97;3.97;;;23.00;69.80;;;;;;5049250;28;20512;-68
2023/09/03 09:53:27;;;;;;;3.93;3.37;;;23.20;68.80;;;;;;5050128;28;20527;-68
2023/09/03 09:56:01;;;;;;;5.10;4.10;;;23.30;68.30;;;;;;5051773;28;20455;-68
2023/09/03 09:58:40;;;;;;;8.73;3.87;;;23.30;67.50;;;;;;5054502;28;20459;-69
2023/09/03 10:01:08;;;;;;;7.50;3.97;;;23.10;68.00;;;;;;5050080;28;20543;-68
2023/09/03 10:03:43;;;;;;;7.03;4.50;;;23.30;68.00;;;;;;5055040;28;20473;-68
2023/09/03 10:06:09;;;;;;;6.87;3.20;;;23.30;67.70;;;;;;5052426;28;20444;-71
2023/09/03 10:08:35;;;;;;;6.43;4.17;;;23.30;67.90;;;;;;5054198;28;20487;-67
2023/09/03 10:11:01;;;;;;;5.50;4.00;;;23.40;66.90;;;;;;5053673;28;20201;-69
2023/09/03 10:13:28;;;;;;;4.23;3.00;;;23.40;67.20;;;;;;5054751;28;20431;-67
2023/09/03 10:15:54;;;;;;;6.90;2.70;;;23.60;66.00;;;;;;5055382;28;20563;-68
2023/09/03 10:18:21;;;;;;;3.70;3.40;;;23.80;65.60;;;;;;5051395;28;20442;-68
2023/09/03 10:20:48;;;;;;;4.60;3.30;;;23.90;65.40;;;;;;5048800;28;21026;-68
2023/09/03 10:23:18;;;;;;;3.93;3.20;;;23.60;65.60;;;;;;5049160;28;20541;-70
2023/09/03 10:25:44;;;;;;;3.70;3.07;;;23.60;66.40;;;;;;5049960;28;20426;-69
2023/09/03 10:28:11;;;;;;;6.80;3.23;;;23.50;66.00;;;;;;5050084;28;20416;-69
2023/09/03 10:30:44;;;;;;;6.60;3.13;;;23.60;65.70;;;;;;5046859;28;20467;-67
2023/09/03 10:33:10;;;;;;;5.23;2.80;;;23.50;65.60;;;;;;5048765;28;20425;-69
2023/09/03 10:35:36;;;;;;;4.67;2.80;;;23.80;64.50;;;;;;5049841;28;20924;-68
2023/09/03 10:38:01;;;;;;;4.23;2.60;;;23.70;65.10;;;;;;5049930;28;20194;-68
2023/09/03 10:40:32;;;;;;;4.03;2.40;;;23.90;64.10;;;;;;5048208;28;20234;-66
2023/09/03 10:43:19;;;;;;;3.53;2.47;;;24.30;63.90;;;;;;5049154;28;20689;-67
2023/09/03 10:46:07;;;;;;;6.33;2.70;;;25.10;62.20;;;;;;5049725;28;20425;-68
2023/09/03 10:48:36;;;;;;;3.40;2.67;;;25.60;60.90;;;;;;5046226;28;20874;-69
2023/09/03 10:51:02;;;;;;;4.10;3.10;;;25.40;60.70;;;;;;5042524;28;21014;-69
2023/09/03 10:53:35;;;;;;;4.10;3.07;;;25.30;60.40;;;;;;5051657;28;20526;-69
2023/09/03 10:56:14;;;;;;;3.10;2.63;;;25.70;60.70;;;;;;5053558;28;20974;-68
2023/09/03 10:59:01;;;;;;;3.30;2.30;;;25.40;61.50;;;;;;5052683;28;20921;-68
2023/09/03 11:01:30;;;;;;;5.70;2.03;;;25.40;61.60;;;;;;5038601;28;20458;-68
2023/09/03 11:04:01;;;;;;;2.53;2.17;;;25.40;62.00;;;;;;5049579;28;20496;-68
2023/09/03 11:06:31;;;;;;;2.47;2.20;;;25.90;61.30;;;;;;5050003;28;20443;-69
2023/09/03 11:08:59;;;;;;;2.13;1.70;;;25.90;60.90;;;;;;5050025;28;20437;-69
2023/09/03 11:11:28;;;;;;;4.10;2.37;;;25.00;61.60;;;;;;5047539;28;20477;-67
2023/09/03 11:13:55;;;;;;;3.00;2.13;;;24.80;62.00;;;;;;5052022;28;20429;-68
2023/09/03 11:16:34;;;;;;;2.77;2.10;;;24.90;61.90;;;;;;5053432;28;20794;-68
2023/09/03 11:19:03;;;;;;;2.60;1.80;;;25.10;61.50;;;;;;5053947;28;20437;-68
2023/09/03 11:21:29;;;;;;;3.90;2.10;;;25.40;61.50;;;;;;5052074;28;20492;-69
2023/09/03 11:24:02;;;;;;;2.30;2.13;;;25.40;61.60;;;;;;5053182;28;20476;-67
2023/09/03 11:26:29;;;;;;;4.43;1.87;;;25.50;61.60;;;;;;5053760;28;20866;-68
2023/09/03 11:28:55;;;;;;;3.20;2.33;;;25.80;61.20;;;;;;5054291;28;20431;-69
2023/09/03 11:31:23;;;;;;;5.80;2.30;;;26.20;60.40;;;;;;5051765;28;20465;-69
2023/09/03 11:33:50;;;;;;;3.10;2.00;;;26.70;59.10;;;;;;5053848;28;20195;-71
2023/09/03 11:36:21;;;;;;;3.17;1.97;;;27.00;58.10;;;;;;5054250;28;20994;-69
2023/09/03 11:38:56;;;;;;;2.10;1.90;;;27.20;58.00;;;;;;5052531;28;20449;-69
2023/09/03 11:41:22;;;;;;;3.00;2.57;;;26.80;58.40;;;;;;5052700;28;20477;-70
2023/09/03 11:43:48;;;;;;;2.80;2.13;;;27.20;58.80;;;;;;5050922;28;20463;-68
2023/09/03 11:46:16;;;;;;;3.40;2.53;;;27.20;58.10;;;;;;5052205;28;20415;-68
2023/09/03 11:48:47;;;;;;;2.63;2.00;;;27.30;57.80;;;;;;5052180;28;20506;-70
2023/09/03 11:51:24;;;;;;;3.20;2.47;;;27.20;58.00;;;;;;5050353;28;20453;-70
2023/09/03 11:53:50;;;;;;;5.57;2.47;;;26.00;59.70;;;;;;5050295;28;20439;-69
2023/09/03 11:56:18;;;;;;;2.60;1.70;;;25.80;60.90;;;;;;5052368;28;20935;-68
2023/09/03 11:58:46;;;;;;;3.07;2.07;;;26.20;60.90;;;;;;5051937;28;20674;-69
2023/09/03 12:01:14;;;;;;;2.97;2.33;;;26.20;60.70;;;;;;5050031;28;20561;-69
2023/09/03 12:03:41;;;;;;;3.90;2.00;;;26.40;60.40;;;;;;5051270;28;21076;-68
2023/09/03 12:06:06;;;;;;;2.47;1.77;;;26.80;60.30;;;;;;5052490;28;20418;-69
2023/09/03 12:08:32;;;;;;;4.47;2.33;;;27.40;59.30;;;;;;5052335;28;20416;-68
2023/09/03 12:10:58;;;;;;;3.20;2.63;;;27.00;59.70;;;;;;5049390;28;20204;-67
2023/09/03 12:13:34;;;;;;;18.90;13.77;;;26.40;61.00;;;;;;5051464;28;20180;-70
2023/09/03 12:16:16;;;;;;;4.80;2.67;;;26.50;61.00;;;;;;5052489;28;20195;-68
2023/09/03 12:19:02;;;;;;;2.77;2.10;;;27.00;60.30;;;;;;5048232;28;20496;-69
2023/09/03 12:21:33;;;;;;;2.40;2.20;;;26.70;60.40;;;;;;5049835;28;20473;-68
2023/09/03 12:24:00;;;;;;;3.40;2.20;;;26.80;60.40;;;;;;5049958;28;20975;-70
2023/09/03 12:26:26;;;;;;;3.93;2.40;;;27.10;59.60;;;;;;5051677;28;20422;-69
2023/09/03 12:28:54;;;;;;;3.30;2.83;;;27.00;59.60;;;;;;5051852;28;20805;-69
2023/09/03 12:31:21;;;;;;;4.63;2.43;;;27.10;59.60;;;;;;5048693;28;20215;-70
2023/09/03 12:33:50;;;;;;;5.13;3.10;;;26.90;59.90;;;;;;5050821;28;20897;-68
2023/09/03 12:36:19;;;;;;;3.83;2.80;;;27.40;59.10;;;;;;5051312;28;20457;-66
2023/09/03 12:38:58;;;;;;;3.40;2.37;;;27.70;58.50;;;;;;5051221;28;20414;-70
2023/09/03 12:41:34;;;;;;;2.80;2.67;;;27.30;59.10;;;;;;5044002;28;20527;-67
2023/09/03 12:44:07;;;;;;;3.47;2.93;;;26.70;60.40;;;;;;5050783;28;20522;-69
2023/09/03 12:46:37;;;;;;;4.70;2.73;;;26.90;60.60;;;;;;5051515;28;20431;-70
2023/09/03 12:49:03;;;;;;;3.40;2.60;;;27.00;60.00;;;;;;5046311;28;20425;-69